sensor_id;sensor_type;location;lat;lon;timestamp;P1;durP1;ratioP1;P2;durP2;ratioP2
23078;SDS011;11707;50.830;4.364;2023-06-24T00:00:44;3.40;;;2.65;;
23078;SDS011;11707;50.830;4.364;2023-06-24T00:03:10;3.92;;;2.75;;
23078;SDS011;11707;50.830;4.364;2023-06-24T00:05:37;7.72;;;3.35;;
23078;SDS011;11707;50.830;4.364;2023-06-24T00:08:04;5.68;;;3.28;;
23078;SDS011;11707;50.830;4.364;2023-06-24T00:10:31;4.85;;;3.03;;
23078;SDS011;11707;50.830;4.364;2023-06-24T00:12:59;4.43;;;2.95;;
23078;SDS011;11707;50.830;4.364;2023-06-24T00:15:28;4.05;;;3.05;;
23078;SDS011;11707;50.830;4.364;2023-06-24T00:17:53;10.60;;;3.65;;
23078;SDS011;11707;50.830;4.364;2023-06-24T00:20:19;6.53;;;3.42;;
23078;SDS011;11707;50.830;4.364;2023-06-24T00:22:45;5.80;;;3.38;;
23078;SDS011;11707;50.830;4.364;2023-06-24T00:25:16;5.07;;;3.30;;
23078;SDS011;11707;50.830;4.364;2023-06-24T00:27:42;6.60;;;3.33;;
23078;SDS011;11707;50.830;4.364;2023-06-24T00:30:08;6.60;;;3.08;;
23078;SDS011;11707;50.830;4.364;2023-06-24T00:32:34;6.93;;;3.08;;
23078;SDS011;11707;50.830;4.364;2023-06-24T00:35:00;6.53;;;2.97;;
23078;SDS011;11707;50.830;4.364;2023-06-24T00:37:26;5.10;;;2.55;;
23078;SDS011;11707;50.830;4.364;2023-06-24T00:39:51;6.10;;;3.50;;
23078;SDS011;11707;50.830;4.364;2023-06-24T00:42:17;4.68;;;3.13;;
23078;SDS011;11707;50.830;4.364;2023-06-24T00:44:43;4.40;;;3.10;;
23078;SDS011;11707;50.830;4.364;2023-06-24T00:47:10;6.00;;;3.17;;
23078;SDS011;11707;50.830;4.364;2023-06-24T00:49:36;6.03;;;3.35;;
23078;SDS011;11707;50.830;4.364;2023-06-24T00:52:02;4.47;;;2.78;;
23078;SDS011;11707;50.830;4.364;2023-06-24T00:54:28;4.05;;;3.20;;
23078;SDS011;11707;50.830;4.364;2023-06-24T00:56:56;4.47;;;3.33;;
23078;SDS011;11707;50.830;4.364;2023-06-24T00:59:25;4.32;;;2.97;;
23078;SDS011;11707;50.830;4.364;2023-06-24T01:01:55;5.35;;;2.95;;
23078;SDS011;11707;50.830;4.364;2023-06-24T01:04:20;5.38;;;3.53;;
23078;SDS011;11707;50.830;4.364;2023-06-24T01:06:46;9.18;;;4.75;;
23078;SDS011;11707;50.830;4.364;2023-06-24T01:09:12;8.10;;;4.85;;
23078;SDS011;11707;50.830;4.364;2023-06-24T01:11:38;5.88;;;4.53;;
23078;SDS011;11707;50.830;4.364;2023-06-24T01:14:04;7.20;;;4.57;;
23078;SDS011;11707;50.830;4.364;2023-06-24T01:22:28;6.05;;;3.90;;
23078;SDS011;11707;50.830;4.364;2023-06-24T01:25:20;6.93;;;4.53;;
23078;SDS011;11707;50.830;4.364;2023-06-24T01:28:03;10.43;;;3.92;;
23078;SDS011;11707;50.830;4.364;2023-06-24T01:33:20;6.53;;;4.13;;
23078;SDS011;11707;50.830;4.364;2023-06-24T01:35:51;6.35;;;4.40;;
23078;SDS011;11707;50.830;4.364;2023-06-24T01:38:27;5.72;;;3.80;;
23078;SDS011;11707;50.830;4.364;2023-06-24T01:41:13;9.38;;;5.88;;
23078;SDS011;11707;50.830;4.364;2023-06-24T01:43:43;9.38;;;3.80;;
23078;SDS011;11707;50.830;4.364;2023-06-24T01:46:09;5.35;;;3.90;;
23078;SDS011;11707;50.830;4.364;2023-06-24T01:48:37;5.63;;;3.22;;
23078;SDS011;11707;50.830;4.364;2023-06-24T01:51:10;3.83;;;2.85;;
23078;SDS011;11707;50.830;4.364;2023-06-24T01:53:42;4.57;;;3.67;;
23078;SDS011;11707;50.830;4.364;2023-06-24T01:56:14;10.30;;;3.55;;
23078;SDS011;11707;50.830;4.364;2023-06-24T01:58:40;6.50;;;3.55;;
23078;SDS011;11707;50.830;4.364;2023-06-24T02:01:08;5.35;;;3.40;;
23078;SDS011;11707;50.830;4.364;2023-06-24T02:03:34;7.00;;;3.72;;
23078;SDS011;11707;50.830;4.364;2023-06-24T02:06:02;4.70;;;3.67;;
23078;SDS011;11707;50.830;4.364;2023-06-24T02:08:30;6.80;;;3.88;;
23078;SDS011;11707;50.830;4.364;2023-06-24T02:10:58;5.03;;;3.28;;
23078;SDS011;11707;50.830;4.364;2023-06-24T02:13:25;3.75;;;2.78;;
23078;SDS011;11707;50.830;4.364;2023-06-24T02:15:52;4.82;;;3.28;;
23078;SDS011;11707;50.830;4.364;2023-06-24T02:18:19;4.88;;;3.38;;
23078;SDS011;11707;50.830;4.364;2023-06-24T02:20:48;5.13;;;3.55;;
23078;SDS011;11707;50.830;4.364;2023-06-24T02:23:15;6.05;;;3.33;;
23078;SDS011;11707;50.830;4.364;2023-06-24T02:25:42;6.80;;;3.97;;
23078;SDS011;11707;50.830;4.364;2023-06-24T02:28:14;4.45;;;3.35;;
23078;SDS011;11707;50.830;4.364;2023-06-24T02:30:41;6.68;;;3.97;;
23078;SDS011;11707;50.830;4.364;2023-06-24T02:33:09;4.82;;;3.47;;
23078;SDS011;11707;50.830;4.364;2023-06-24T02:35:36;5.25;;;3.55;;
23078;SDS011;11707;50.830;4.364;2023-06-24T02:38:03;6.03;;;3.83;;
23078;SDS011;11707;50.830;4.364;2023-06-24T02:40:28;8.18;;;4.18;;
23078;SDS011;11707;50.830;4.364;2023-06-24T02:42:56;4.40;;;3.50;;
23078;SDS011;11707;50.830;4.364;2023-06-24T02:45:22;7.50;;;3.30;;
23078;SDS011;11707;50.830;4.364;2023-06-24T02:47:48;5.50;;;3.50;;
23078;SDS011;11707;50.830;4.364;2023-06-24T02:50:17;5.20;;;3.67;;
23078;SDS011;11707;50.830;4.364;2023-06-24T02:52:44;4.75;;;3.10;;
23078;SDS011;11707;50.830;4.364;2023-06-24T02:55:10;5.53;;;3.65;;
23078;SDS011;11707;50.830;4.364;2023-06-24T02:57:37;7.88;;;3.58;;
23078;SDS011;11707;50.830;4.364;2023-06-24T03:00:04;7.07;;;3.63;;
23078;SDS011;11707;50.830;4.364;2023-06-24T03:02:33;7.45;;;3.90;;
23078;SDS011;11707;50.830;4.364;2023-06-24T03:04:59;9.07;;;3.83;;
23078;SDS011;11707;50.830;4.364;2023-06-24T03:07:27;5.63;;;3.67;;
23078;SDS011;11707;50.830;4.364;2023-06-24T03:09:55;9.13;;;4.65;;
23078;SDS011;11707;50.830;4.364;2023-06-24T03:12:20;7.45;;;4.13;;
23078;SDS011;11707;50.830;4.364;2023-06-24T03:14:46;6.95;;;4.18;;
23078;SDS011;11707;50.830;4.364;2023-06-24T03:17:12;8.65;;;4.85;;
23078;SDS011;11707;50.830;4.364;2023-06-24T03:19:38;8.38;;;4.32;;
23078;SDS011;11707;50.830;4.364;2023-06-24T03:22:06;8.23;;;4.95;;
23078;SDS011;11707;50.830;4.364;2023-06-24T03:24:34;8.65;;;4.72;;
23078;SDS011;11707;50.830;4.364;2023-06-24T03:27:00;7.88;;;4.30;;
23078;SDS011;11707;50.830;4.364;2023-06-24T03:29:28;5.43;;;4.00;;
23078;SDS011;11707;50.830;4.364;2023-06-24T03:31:55;8.15;;;4.68;;
23078;SDS011;11707;50.830;4.364;2023-06-24T03:34:23;5.38;;;3.92;;
23078;SDS011;11707;50.830;4.364;2023-06-24T03:36:52;7.60;;;4.57;;
23078;SDS011;11707;50.830;4.364;2023-06-24T03:39:23;6.82;;;4.30;;
23078;SDS011;11707;50.830;4.364;2023-06-24T03:41:48;9.10;;;4.80;;
23078;SDS011;11707;50.830;4.364;2023-06-24T03:44:14;9.35;;;4.18;;
23078;SDS011;11707;50.830;4.364;2023-06-24T03:46:40;7.18;;;3.90;;
23078;SDS011;11707;50.830;4.364;2023-06-24T03:49:06;6.75;;;4.22;;
23078;SDS011;11707;50.830;4.364;2023-06-24T03:51:34;4.85;;;4.03;;
23078;SDS011;11707;50.830;4.364;2023-06-24T03:54:00;8.30;;;3.92;;
23078;SDS011;11707;50.830;4.364;2023-06-24T03:56:25;9.23;;;4.40;;
23078;SDS011;11707;50.830;4.364;2023-06-24T03:58:53;6.43;;;4.70;;
23078;SDS011;11707;50.830;4.364;2023-06-24T04:01:22;7.78;;;4.20;;
23078;SDS011;11707;50.830;4.364;2023-06-24T04:03:47;5.53;;;4.18;;
23078;SDS011;11707;50.830;4.364;2023-06-24T04:06:13;9.07;;;3.90;;
23078;SDS011;11707;50.830;4.364;2023-06-24T04:08:38;6.45;;;4.63;;
23078;SDS011;11707;50.830;4.364;2023-06-24T04:11:04;6.15;;;4.70;;
23078;SDS011;11707;50.830;4.364;2023-06-24T04:13:31;7.45;;;4.15;;
23078;SDS011;11707;50.830;4.364;2023-06-24T04:15:59;5.75;;;4.20;;
23078;SDS011;11707;50.830;4.364;2023-06-24T04:18:27;7.95;;;4.25;;
23078;SDS011;11707;50.830;4.364;2023-06-24T04:20:55;7.78;;;3.78;;
23078;SDS011;11707;50.830;4.364;2023-06-24T04:23:22;7.40;;;4.38;;
23078;SDS011;11707;50.830;4.364;2023-06-24T04:25:48;9.32;;;4.40;;
23078;SDS011;11707;50.830;4.364;2023-06-24T04:28:16;8.38;;;4.47;;
23078;SDS011;11707;50.830;4.364;2023-06-24T04:30:42;6.13;;;4.05;;
23078;SDS011;11707;50.830;4.364;2023-06-24T04:33:07;7.50;;;3.83;;
23078;SDS011;11707;50.830;4.364;2023-06-24T04:35:33;7.50;;;4.30;;
23078;SDS011;11707;50.830;4.364;2023-06-24T04:37:59;5.45;;;4.13;;
23078;SDS011;11707;50.830;4.364;2023-06-24T04:40:24;4.75;;;3.85;;
23078;SDS011;11707;50.830;4.364;2023-06-24T04:42:50;5.68;;;4.32;;
23078;SDS011;11707;50.830;4.364;2023-06-24T04:45:16;6.10;;;4.38;;
23078;SDS011;11707;50.830;4.364;2023-06-24T04:47:41;5.13;;;3.42;;
23078;SDS011;11707;50.830;4.364;2023-06-24T04:50:09;6.82;;;4.20;;
23078;SDS011;11707;50.830;4.364;2023-06-24T04:52:35;6.65;;;3.90;;
23078;SDS011;11707;50.830;4.364;2023-06-24T04:55:04;7.03;;;3.65;;
23078;SDS011;11707;50.830;4.364;2023-06-24T04:57:31;5.45;;;3.80;;
23078;SDS011;11707;50.830;4.364;2023-06-24T04:59:57;7.25;;;4.20;;
23078;SDS011;11707;50.830;4.364;2023-06-24T05:02:23;6.30;;;3.65;;
23078;SDS011;11707;50.830;4.364;2023-06-24T05:04:49;8.20;;;3.75;;
23078;SDS011;11707;50.830;4.364;2023-06-24T05:07:16;5.82;;;4.05;;
23078;SDS011;11707;50.830;4.364;2023-06-24T05:09:42;7.97;;;3.88;;
23078;SDS011;11707;50.830;4.364;2023-06-24T05:12:08;6.93;;;3.83;;
23078;SDS011;11707;50.830;4.364;2023-06-24T05:14:35;5.85;;;3.83;;
23078;SDS011;11707;50.830;4.364;2023-06-24T05:17:00;4.78;;;3.38;;
23078;SDS011;11707;50.830;4.364;2023-06-24T05:19:27;5.82;;;4.25;;
23078;SDS011;11707;50.830;4.364;2023-06-24T05:21:52;9.10;;;3.92;;
23078;SDS011;11707;50.830;4.364;2023-06-24T05:24:18;7.38;;;3.70;;
23078;SDS011;11707;50.830;4.364;2023-06-24T05:26:44;8.32;;;4.00;;
23078;SDS011;11707;50.830;4.364;2023-06-24T05:29:13;8.35;;;3.33;;
23078;SDS011;11707;50.830;4.364;2023-06-24T05:31:39;7.03;;;3.50;;
23078;SDS011;11707;50.830;4.364;2023-06-24T05:34:05;4.25;;;2.97;;
23078;SDS011;11707;50.830;4.364;2023-06-24T05:36:33;6.82;;;3.45;;
23078;SDS011;11707;50.830;4.364;2023-06-24T05:38:59;5.35;;;3.35;;
23078;SDS011;11707;50.830;4.364;2023-06-24T05:41:25;7.90;;;3.55;;
23078;SDS011;11707;50.830;4.364;2023-06-24T05:44:03;6.15;;;3.10;;
23078;SDS011;11707;50.830;4.364;2023-06-24T05:46:29;7.38;;;3.85;;
23078;SDS011;11707;50.830;4.364;2023-06-24T05:48:55;6.10;;;3.50;;
23078;SDS011;11707;50.830;4.364;2023-06-24T05:51:21;9.27;;;3.70;;
23078;SDS011;11707;50.830;4.364;2023-06-24T05:53:47;4.45;;;3.42;;
23078;SDS011;11707;50.830;4.364;2023-06-24T05:56:12;4.72;;;3.10;;
23078;SDS011;11707;50.830;4.364;2023-06-24T05:58:38;6.45;;;3.67;;
23078;SDS011;11707;50.830;4.364;2023-06-24T06:01:04;7.38;;;3.50;;
23078;SDS011;11707;50.830;4.364;2023-06-24T06:03:30;5.97;;;3.03;;
23078;SDS011;11707;50.830;4.364;2023-06-24T06:05:56;5.22;;;3.08;;
23078;SDS011;11707;50.830;4.364;2023-06-24T06:08:24;7.18;;;3.53;;
23078;SDS011;11707;50.830;4.364;2023-06-24T06:10:52;9.40;;;3.40;;
23078;SDS011;11707;50.830;4.364;2023-06-24T06:13:18;4.90;;;3.53;;
23078;SDS011;11707;50.830;4.364;2023-06-24T06:15:43;5.93;;;3.22;;
23078;SDS011;11707;50.830;4.364;2023-06-24T06:18:09;8.75;;;3.70;;
23078;SDS011;11707;50.830;4.364;2023-06-24T06:20:35;4.60;;;3.10;;
23078;SDS011;11707;50.830;4.364;2023-06-24T06:23:03;6.32;;;3.03;;
23078;SDS011;11707;50.830;4.364;2023-06-24T06:25:29;5.80;;;3.00;;
23078;SDS011;11707;50.830;4.364;2023-06-24T06:27:55;5.50;;;3.28;;
23078;SDS011;11707;50.830;4.364;2023-06-24T06:30:23;7.45;;;3.35;;
23078;SDS011;11707;50.830;4.364;2023-06-24T06:32:48;6.63;;;2.97;;
23078;SDS011;11707;50.830;4.364;2023-06-24T06:35:14;5.97;;;3.67;;
23078;SDS011;11707;50.830;4.364;2023-06-24T06:37:40;5.47;;;3.13;;
23078;SDS011;11707;50.830;4.364;2023-06-24T06:40:08;7.18;;;3.20;;
23078;SDS011;11707;50.830;4.364;2023-06-24T06:42:36;5.20;;;3.15;;
23078;SDS011;11707;50.830;4.364;2023-06-24T06:45:02;6.57;;;3.05;;
23078;SDS011;11707;50.830;4.364;2023-06-24T06:47:28;5.85;;;2.97;;
23078;SDS011;11707;50.830;4.364;2023-06-24T06:49:57;6.30;;;3.67;;
23078;SDS011;11707;50.830;4.364;2023-06-24T06:52:22;4.18;;;3.42;;
23078;SDS011;11707;50.830;4.364;2023-06-24T06:54:48;8.05;;;4.10;;
23078;SDS011;11707;50.830;4.364;2023-06-24T06:57:14;4.25;;;2.63;;
23078;SDS011;11707;50.830;4.364;2023-06-24T06:59:39;5.57;;;2.55;;
23078;SDS011;11707;50.830;4.364;2023-06-24T07:02:05;4.38;;;2.55;;
23078;SDS011;11707;50.830;4.364;2023-06-24T07:04:31;5.13;;;3.10;;
23078;SDS011;11707;50.830;4.364;2023-06-24T07:06:57;4.57;;;3.05;;
23078;SDS011;11707;50.830;4.364;2023-06-24T07:09:28;4.63;;;2.72;;
23078;SDS011;11707;50.830;4.364;2023-06-24T07:11:54;4.88;;;3.58;;
23078;SDS011;11707;50.830;4.364;2023-06-24T07:14:19;5.28;;;2.40;;
23078;SDS011;11707;50.830;4.364;2023-06-24T07:16:45;5.15;;;2.80;;
23078;SDS011;11707;50.830;4.364;2023-06-24T07:19:10;6.68;;;3.30;;
23078;SDS011;11707;50.830;4.364;2023-06-24T07:21:37;4.47;;;3.28;;
23078;SDS011;11707;50.830;4.364;2023-06-24T07:24:03;4.78;;;3.38;;
23078;SDS011;11707;50.830;4.364;2023-06-24T07:26:29;7.00;;;3.38;;
23078;SDS011;11707;50.830;4.364;2023-06-24T07:28:56;5.18;;;3.42;;
23078;SDS011;11707;50.830;4.364;2023-06-24T07:31:23;6.95;;;2.78;;
23078;SDS011;11707;50.830;4.364;2023-06-24T07:33:51;9.27;;;3.03;;
23078;SDS011;11707;50.830;4.364;2023-06-24T07:36:19;5.85;;;3.28;;
23078;SDS011;11707;50.830;4.364;2023-06-24T07:38:45;10.80;;;3.47;;
23078;SDS011;11707;50.830;4.364;2023-06-24T07:41:11;6.18;;;2.70;;
23078;SDS011;11707;50.830;4.364;2023-06-24T07:43:39;5.28;;;2.90;;
23078;SDS011;11707;50.830;4.364;2023-06-24T07:46:05;5.72;;;3.03;;
23078;SDS011;11707;50.830;4.364;2023-06-24T07:48:32;5.20;;;2.63;;
23078;SDS011;11707;50.830;4.364;2023-06-24T07:50:58;5.32;;;2.47;;
23078;SDS011;11707;50.830;4.364;2023-06-24T07:53:26;4.75;;;3.20;;
23078;SDS011;11707;50.830;4.364;2023-06-24T07:55:52;7.57;;;2.88;;
23078;SDS011;11707;50.830;4.364;2023-06-24T07:58:18;5.88;;;3.00;;
23078;SDS011;11707;50.830;4.364;2023-06-24T08:00:44;5.57;;;2.72;;
23078;SDS011;11707;50.830;4.364;2023-06-24T08:03:11;8.00;;;2.55;;
23078;SDS011;11707;50.830;4.364;2023-06-24T08:05:37;5.45;;;2.35;;
23078;SDS011;11707;50.830;4.364;2023-06-24T08:08:04;5.28;;;2.20;;
23078;SDS011;11707;50.830;4.364;2023-06-24T08:10:33;7.28;;;2.65;;
23078;SDS011;11707;50.830;4.364;2023-06-24T08:12:59;6.85;;;2.17;;
23078;SDS011;11707;50.830;4.364;2023-06-24T08:15:25;2.55;;;1.60;;
23078;SDS011;11707;50.830;4.364;2023-06-24T08:17:51;5.35;;;2.28;;
23078;SDS011;11707;50.830;4.364;2023-06-24T08:20:18;4.03;;;2.35;;
23078;SDS011;11707;50.830;4.364;2023-06-24T08:22:47;4.75;;;2.20;;
23078;SDS011;11707;50.830;4.364;2023-06-24T08:25:13;3.28;;;1.90;;
23078;SDS011;11707;50.830;4.364;2023-06-24T08:27:38;4.35;;;1.80;;
23078;SDS011;11707;50.830;4.364;2023-06-24T08:30:05;2.38;;;1.52;;
23078;SDS011;11707;50.830;4.364;2023-06-24T08:32:31;3.47;;;2.17;;
23078;SDS011;11707;50.830;4.364;2023-06-24T08:34:59;3.63;;;1.80;;
23078;SDS011;11707;50.830;4.364;2023-06-24T08:37:25;3.97;;;1.90;;
23078;SDS011;11707;50.830;4.364;2023-06-24T08:39:51;3.38;;;2.22;;
23078;SDS011;11707;50.830;4.364;2023-06-24T08:42:16;5.40;;;1.95;;
23078;SDS011;11707;50.830;4.364;2023-06-24T08:44:45;4.57;;;1.95;;
23078;SDS011;11707;50.830;4.364;2023-06-24T08:47:13;4.25;;;1.90;;
23078;SDS011;11707;50.830;4.364;2023-06-24T08:49:46;6.30;;;2.00;;
23078;SDS011;11707;50.830;4.364;2023-06-24T08:52:21;2.22;;;1.45;;
23078;SDS011;11707;50.830;4.364;2023-06-24T08:54:51;3.13;;;1.70;;
23078;SDS011;11707;50.830;4.364;2023-06-24T08:57:20;5.63;;;2.33;;
23078;SDS011;11707;50.830;4.364;2023-06-24T08:59:51;2.30;;;1.70;;
23078;SDS011;11707;50.830;4.364;2023-06-24T09:02:18;9.20;;;2.58;;
23078;SDS011;11707;50.830;4.364;2023-06-24T09:04:44;2.40;;;1.70;;
23078;SDS011;11707;50.830;4.364;2023-06-24T09:07:09;3.80;;;2.20;;
23078;SDS011;11707;50.830;4.364;2023-06-24T09:09:43;3.22;;;2.00;;
23078;SDS011;11707;50.830;4.364;2023-06-24T09:12:14;3.60;;;1.70;;
23078;SDS011;11707;50.830;4.364;2023-06-24T09:14:40;3.33;;;1.65;;
23078;SDS011;11707;50.830;4.364;2023-06-24T09:17:08;4.75;;;1.80;;
23078;SDS011;11707;50.830;4.364;2023-06-24T09:19:34;3.63;;;2.13;;
23078;SDS011;11707;50.830;4.364;2023-06-24T09:22:03;5.53;;;2.13;;
23078;SDS011;11707;50.830;4.364;2023-06-24T09:24:30;3.75;;;2.28;;
23078;SDS011;11707;50.830;4.364;2023-06-24T09:26:59;2.47;;;1.67;;
23078;SDS011;11707;50.830;4.364;2023-06-24T09:29:28;3.67;;;1.50;;
23078;SDS011;11707;50.830;4.364;2023-06-24T09:32:03;4.57;;;1.77;;
23078;SDS011;11707;50.830;4.364;2023-06-24T09:34:32;5.57;;;1.70;;
23078;SDS011;11707;50.830;4.364;2023-06-24T09:36:58;3.95;;;1.58;;
23078;SDS011;11707;50.830;4.364;2023-06-24T09:39:25;3.22;;;1.77;;
23078;SDS011;11707;50.830;4.364;2023-06-24T09:41:59;3.60;;;2.60;;
23078;SDS011;11707;50.830;4.364;2023-06-24T09:44:28;3.10;;;1.88;;
23078;SDS011;11707;50.830;4.364;2023-06-24T09:46:54;3.38;;;1.48;;
23078;SDS011;11707;50.830;4.364;2023-06-24T09:49:23;4.25;;;2.03;;
23078;SDS011;11707;50.830;4.364;2023-06-24T09:51:53;3.63;;;1.60;;
23078;SDS011;11707;50.830;4.364;2023-06-24T09:54:22;5.10;;;1.83;;
23078;SDS011;11707;50.830;4.364;2023-06-24T09:56:53;2.42;;;1.60;;
23078;SDS011;11707;50.830;4.364;2023-06-24T09:59:22;2.08;;;1.38;;
23078;SDS011;11707;50.830;4.364;2023-06-24T10:01:49;2.22;;;1.50;;
23078;SDS011;11707;50.830;4.364;2023-06-24T10:04:19;2.95;;;1.27;;
23078;SDS011;11707;50.830;4.364;2023-06-24T10:06:47;3.30;;;1.48;;
23078;SDS011;11707;50.830;4.364;2023-06-24T10:09:16;4.20;;;2.63;;
23078;SDS011;11707;50.830;4.364;2023-06-24T10:11:44;6.97;;;2.80;;
23078;SDS011;11707;50.830;4.364;2023-06-24T10:14:15;2.50;;;1.60;;
23078;SDS011;11707;50.830;4.364;2023-06-24T10:16:44;2.53;;;1.58;;
23078;SDS011;11707;50.830;4.364;2023-06-24T10:19:13;3.10;;;1.23;;
23078;SDS011;11707;50.830;4.364;2023-06-24T10:24:35;4.22;;;1.55;;
23078;SDS011;11707;50.830;4.364;2023-06-24T10:27:08;3.42;;;1.48;;
23078;SDS011;11707;50.830;4.364;2023-06-24T10:29:38;3.00;;;1.35;;
23078;SDS011;11707;50.830;4.364;2023-06-24T10:32:09;2.40;;;1.20;;
23078;SDS011;11707;50.830;4.364;2023-06-24T10:34:42;2.70;;;1.58;;
23078;SDS011;11707;50.830;4.364;2023-06-24T10:37:13;4.05;;;2.13;;
23078;SDS011;11707;50.830;4.364;2023-06-24T10:47:33;2.83;;;1.75;;
23078;SDS011;11707;50.830;4.364;2023-06-24T10:50:02;2.80;;;1.23;;
23078;SDS011;11707;50.830;4.364;2023-06-24T10:52:28;2.83;;;1.90;;
23078;SDS011;11707;50.830;4.364;2023-06-24T10:54:55;3.20;;;1.58;;
23078;SDS011;11707;50.830;4.364;2023-06-24T10:57:24;2.65;;;2.17;;
23078;SDS011;11707;50.830;4.364;2023-06-24T10:59:52;3.22;;;1.60;;
23078;SDS011;11707;50.830;4.364;2023-06-24T11:02:20;3.13;;;1.60;;
23078;SDS011;11707;50.830;4.364;2023-06-24T11:04:51;3.20;;;1.55;;
23078;SDS011;11707;50.830;4.364;2023-06-24T11:07:22;4.22;;;1.35;;
23078;SDS011;11707;50.830;4.364;2023-06-24T11:12:16;3.88;;;1.90;;
23078;SDS011;11707;50.830;4.364;2023-06-24T11:14:42;3.03;;;1.77;;
23078;SDS011;11707;50.830;4.364;2023-06-24T11:17:08;2.10;;;1.50;;
23078;SDS011;11707;50.830;4.364;2023-06-24T11:19:34;2.20;;;1.65;;
23078;SDS011;11707;50.830;4.364;2023-06-24T11:22:04;2.30;;;1.63;;
23078;SDS011;11707;50.830;4.364;2023-06-24T11:24:31;3.08;;;1.73;;
23078;SDS011;11707;50.830;4.364;2023-06-24T11:26:56;3.83;;;1.80;;
23078;SDS011;11707;50.830;4.364;2023-06-24T11:29:22;3.08;;;1.88;;
23078;SDS011;11707;50.830;4.364;2023-06-24T11:31:49;5.60;;;1.95;;
23078;SDS011;11707;50.830;4.364;2023-06-24T11:34:15;3.10;;;1.48;;
23078;SDS011;11707;50.830;4.364;2023-06-24T11:36:41;2.80;;;1.92;;
23078;SDS011;11707;50.830;4.364;2023-06-24T11:39:07;3.45;;;1.70;;
23078;SDS011;11707;50.830;4.364;2023-06-24T11:41:33;5.72;;;2.15;;
23078;SDS011;11707;50.830;4.364;2023-06-24T11:43:59;3.17;;;1.73;;
23078;SDS011;11707;50.830;4.364;2023-06-24T11:46:27;3.85;;;2.00;;
23078;SDS011;11707;50.830;4.364;2023-06-24T11:49:05;4.65;;;2.05;;
23078;SDS011;11707;50.830;4.364;2023-06-24T11:51:32;2.40;;;1.92;;
23078;SDS011;11707;50.830;4.364;2023-06-24T11:54:04;4.05;;;2.05;;
23078;SDS011;11707;50.830;4.364;2023-06-24T11:56:39;4.75;;;2.13;;
23078;SDS011;11707;50.830;4.364;2023-06-24T11:59:14;3.47;;;1.73;;
23078;SDS011;11707;50.830;4.364;2023-06-24T12:01:42;5.03;;;2.17;;
23078;SDS011;11707;50.830;4.364;2023-06-24T12:04:12;4.57;;;2.45;;
23078;SDS011;11707;50.830;4.364;2023-06-24T12:06:41;4.88;;;2.00;;
23078;SDS011;11707;50.830;4.364;2023-06-24T12:09:08;2.28;;;1.40;;
23078;SDS011;11707;50.830;4.364;2023-06-24T12:11:34;3.00;;;1.67;;
23078;SDS011;11707;50.830;4.364;2023-06-24T12:14:05;2.80;;;1.58;;
23078;SDS011;11707;50.830;4.364;2023-06-24T12:16:31;3.90;;;2.00;;
23078;SDS011;11707;50.830;4.364;2023-06-24T12:18:56;3.83;;;1.85;;
23078;SDS011;11707;50.830;4.364;2023-06-24T12:21:22;3.45;;;2.33;;
23078;SDS011;11707;50.830;4.364;2023-06-24T12:23:48;3.35;;;2.00;;
23078;SDS011;11707;50.830;4.364;2023-06-24T12:26:14;4.40;;;2.28;;
23078;SDS011;11707;50.830;4.364;2023-06-24T12:28:40;3.80;;;1.80;;
23078;SDS011;11707;50.830;4.364;2023-06-24T12:31:08;3.00;;;1.70;;
23078;SDS011;11707;50.830;4.364;2023-06-24T12:33:34;2.38;;;1.50;;
23078;SDS011;11707;50.830;4.364;2023-06-24T12:35:59;2.95;;;2.08;;
23078;SDS011;11707;50.830;4.364;2023-06-24T12:38:25;4.75;;;1.88;;
23078;SDS011;11707;50.830;4.364;2023-06-24T12:40:51;5.10;;;2.13;;
23078;SDS011;11707;50.830;4.364;2023-06-24T12:43:17;4.18;;;1.95;;
23078;SDS011;11707;50.830;4.364;2023-06-24T12:45:43;4.22;;;2.08;;
23078;SDS011;11707;50.830;4.364;2023-06-24T12:48:12;2.83;;;1.70;;
23078;SDS011;11707;50.830;4.364;2023-06-24T12:50:38;3.22;;;1.73;;
23078;SDS011;11707;50.830;4.364;2023-06-24T12:53:05;6.30;;;1.98;;
23078;SDS011;11707;50.830;4.364;2023-06-24T12:55:31;2.20;;;1.67;;
23078;SDS011;11707;50.830;4.364;2023-06-24T12:57:57;3.10;;;2.00;;
23078;SDS011;11707;50.830;4.364;2023-06-24T13:00:23;2.55;;;1.70;;
23078;SDS011;11707;50.830;4.364;2023-06-24T13:02:51;4.32;;;2.15;;
23078;SDS011;11707;50.830;4.364;2023-06-24T13:05:17;3.67;;;2.33;;
23078;SDS011;11707;50.830;4.364;2023-06-24T13:07:43;4.00;;;2.05;;
23078;SDS011;11707;50.830;4.364;2023-06-24T13:10:11;2.53;;;1.70;;
23078;SDS011;11707;50.830;4.364;2023-06-24T13:12:37;3.47;;;2.00;;
23078;SDS011;11707;50.830;4.364;2023-06-24T13:15:03;3.47;;;1.77;;
23078;SDS011;11707;50.830;4.364;2023-06-24T13:17:30;2.40;;;1.98;;
23078;SDS011;11707;50.830;4.364;2023-06-24T13:19:56;3.63;;;2.65;;
23078;SDS011;11707;50.830;4.364;2023-06-24T13:22:22;3.10;;;2.00;;
23078;SDS011;11707;50.830;4.364;2023-06-24T13:24:48;2.88;;;1.88;;
23078;SDS011;11707;50.830;4.364;2023-06-24T13:27:14;3.50;;;2.00;;
23078;SDS011;11707;50.830;4.364;2023-06-24T13:29:39;2.35;;;1.50;;
23078;SDS011;11707;50.830;4.364;2023-06-24T13:32:05;4.22;;;1.67;;
23078;SDS011;11707;50.830;4.364;2023-06-24T13:34:33;4.97;;;2.30;;
23078;SDS011;11707;50.830;4.364;2023-06-24T13:36:59;2.83;;;1.83;;
23078;SDS011;11707;50.830;4.364;2023-06-24T13:39:25;4.35;;;1.70;;
23078;SDS011;11707;50.830;4.364;2023-06-24T13:41:50;6.45;;;2.65;;
23078;SDS011;11707;50.830;4.364;2023-06-24T13:44:17;3.75;;;2.03;;
23078;SDS011;11707;50.830;4.364;2023-06-24T13:46:45;2.22;;;1.63;;
23078;SDS011;11707;50.830;4.364;2023-06-24T13:49:11;5.03;;;2.20;;
23078;SDS011;11707;50.830;4.364;2023-06-24T13:51:37;3.00;;;1.80;;
23078;SDS011;11707;50.830;4.364;2023-06-24T13:54:03;4.78;;;2.88;;
23078;SDS011;11707;50.830;4.364;2023-06-24T13:56:30;3.75;;;2.20;;
23078;SDS011;11707;50.830;4.364;2023-06-24T13:58:59;4.00;;;2.90;;
23078;SDS011;11707;50.830;4.364;2023-06-24T14:01:24;3.78;;;2.20;;
23078;SDS011;11707;50.830;4.364;2023-06-24T14:03:53;4.72;;;2.78;;
23078;SDS011;11707;50.830;4.364;2023-06-24T14:06:23;2.95;;;1.73;;
23078;SDS011;11707;50.830;4.364;2023-06-24T14:08:51;2.80;;;1.80;;
23078;SDS011;11707;50.830;4.364;2023-06-24T14:11:18;3.60;;;2.20;;
23078;SDS011;11707;50.830;4.364;2023-06-24T14:13:44;2.50;;;1.70;;
23078;SDS011;11707;50.830;4.364;2023-06-24T14:16:10;5.88;;;2.05;;
23078;SDS011;11707;50.830;4.364;2023-06-24T14:18:36;5.00;;;3.70;;
23078;SDS011;11707;50.830;4.364;2023-06-24T14:21:02;4.50;;;2.63;;
23078;SDS011;11707;50.830;4.364;2023-06-24T14:23:29;3.08;;;2.20;;
23078;SDS011;11707;50.830;4.364;2023-06-24T14:25:56;3.65;;;1.85;;
23078;SDS011;11707;50.830;4.364;2023-06-24T14:28:22;2.95;;;2.10;;
23078;SDS011;11707;50.830;4.364;2023-06-24T14:30:48;4.72;;;1.85;;
23078;SDS011;11707;50.830;4.364;2023-06-24T14:33:14;3.45;;;1.80;;
23078;SDS011;11707;50.830;4.364;2023-06-24T14:35:40;4.20;;;1.88;;
23078;SDS011;11707;50.830;4.364;2023-06-24T14:38:06;3.08;;;2.05;;
23078;SDS011;11707;50.830;4.364;2023-06-24T14:40:32;4.95;;;2.17;;
23078;SDS011;11707;50.830;4.364;2023-06-24T14:42:58;3.42;;;2.03;;
23078;SDS011;11707;50.830;4.364;2023-06-24T14:45:27;3.50;;;2.22;;
23078;SDS011;11707;50.830;4.364;2023-06-24T14:47:53;7.53;;;1.98;;
23078;SDS011;11707;50.830;4.364;2023-06-24T14:50:22;2.47;;;1.75;;
23078;SDS011;11707;50.830;4.364;2023-06-24T14:52:48;4.07;;;2.08;;
23078;SDS011;11707;50.830;4.364;2023-06-24T14:55:14;3.38;;;1.90;;
23078;SDS011;11707;50.830;4.364;2023-06-24T14:57:39;5.10;;;2.30;;
23078;SDS011;11707;50.830;4.364;2023-06-24T15:00:08;4.75;;;2.35;;
23078;SDS011;11707;50.830;4.364;2023-06-24T15:02:37;2.97;;;1.88;;
23078;SDS011;11707;50.830;4.364;2023-06-24T15:05:03;3.75;;;2.22;;
23078;SDS011;11707;50.830;4.364;2023-06-24T15:07:29;4.20;;;2.10;;
23078;SDS011;11707;50.830;4.364;2023-06-24T15:09:54;3.83;;;2.33;;